createdAt,value
2023-01-07T00:00:06.528Z,1.23
2023-01-07T00:02:41.809Z,0.63
2023-01-07T00:05:11.005Z,1.10
2023-01-07T00:07:39.289Z,0.87
2023-01-07T00:10:08.200Z,0.70
2023-01-07T00:12:36.462Z,0.50
2023-01-07T00:15:05.303Z,1.07
2023-01-07T00:17:33.585Z,0.70
2023-01-07T00:20:03.241Z,1.27
2023-01-07T00:22:32.120Z,1.10
2023-01-07T00:25:00.377Z,0.93
2023-01-07T00:27:28.615Z,0.27
2023-01-07T00:29:56.872Z,6.20
2023-01-07T00:32:45.216Z,6.70
2023-01-07T00:35:23.289Z,7.10
2023-01-07T00:37:52.689Z,6.27
2023-01-07T00:40:21.546Z,6.23
2023-01-07T00:43:01.306Z,7.50
2023-01-07T00:45:31.610Z,6.30
2023-01-07T00:48:00.730Z,5.57
2023-01-07T00:50:32.291Z,6.30
2023-01-07T00:53:01.400Z,5.80
2023-01-07T00:55:29.990Z,5.87
2023-01-07T00:57:58.778Z,5.93
2023-01-07T01:00:28.296Z,5.90
2023-01-07T01:02:57.621Z,5.77
2023-01-07T01:05:26.294Z,6.33
2023-01-07T01:07:56.277Z,5.77
2023-01-07T01:10:24.712Z,5.20
2023-01-07T01:12:52.977Z,6.00
2023-01-07T01:15:21.710Z,5.40
2023-01-07T01:17:52.346Z,5.40
2023-01-07T01:20:21.166Z,5.03
2023-01-07T01:22:49.435Z,5.93
2023-01-07T01:25:19.227Z,5.43
2023-01-07T01:27:47.489Z,5.07
2023-01-07T01:30:15.741Z,5.00
2023-01-07T01:32:45.026Z,5.10
2023-01-07T01:35:13.704Z,5.53
2023-01-07T01:37:42.138Z,5.13
2023-01-07T01:40:12.453Z,4.47
2023-01-07T01:42:42.127Z,5.20
2023-01-07T01:45:14.435Z,5.73
2023-01-07T01:47:47.451Z,4.70
2023-01-07T01:50:21.325Z,5.13
2023-01-07T01:52:55.309Z,5.13
2023-01-07T01:55:26.988Z,5.43
2023-01-07T01:58:02.865Z,5.30
2023-01-07T02:00:31.895Z,5.50
2023-01-07T02:03:01.348Z,5.30
2023-01-07T02:05:33.609Z,5.43
2023-01-07T02:08:01.914Z,5.70
2023-01-07T02:10:33.211Z,5.40
2023-01-07T02:13:24.801Z,5.70
2023-01-07T02:16:00.390Z,5.77
2023-01-07T02:18:44.076Z,5.40
2023-01-07T02:21:25.576Z,6.27
2023-01-07T02:24:23.304Z,5.83
2023-01-07T02:27:34.431Z,5.73
2023-01-07T02:30:35.721Z,6.50
2023-01-07T02:33:22.864Z,6.73
2023-01-07T02:36:05.770Z,5.97
2023-01-07T02:38:41.904Z,6.13
2023-01-07T02:41:19.063Z,6.60
2023-01-07T02:43:55.565Z,6.40
2023-01-07T02:46:30.154Z,6.90
2023-01-07T02:49:01.307Z,6.80
2023-01-07T02:51:34.724Z,6.73
2023-01-07T02:54:03.208Z,6.20
2023-01-07T02:56:40.749Z,6.57
2023-01-07T02:59:22.834Z,6.73
2023-01-07T03:02:09.782Z,7.40
2023-01-07T03:05:03.364Z,7.30
2023-01-07T03:07:43.703Z,8.70
2023-01-07T03:10:18.094Z,7.57
2023-01-07T03:12:51.211Z,7.70
2023-01-07T03:15:28.893Z,7.37
2023-01-07T03:18:03.324Z,7.57
2023-01-07T03:20:35.609Z,7.70
2023-01-07T03:23:09.077Z,7.63
2023-01-07T03:25:42.544Z,7.83
2023-01-07T03:28:12.837Z,7.17
2023-01-07T03:30:41.359Z,7.57
2023-01-07T03:33:16.438Z,7.27
2023-01-07T03:35:50.656Z,6.73
2023-01-07T03:38:22.078Z,7.10
2023-01-07T03:40:52.308Z,6.33
2023-01-07T03:43:22.431Z,6.47
2023-01-07T03:45:52.457Z,5.63
2023-01-07T03:48:21.010Z,5.40
2023-01-07T03:50:51.822Z,5.80
2023-01-07T03:53:20.058Z,4.70
2023-01-07T03:55:51.385Z,4.80
2023-01-07T03:58:20.391Z,4.53
2023-01-07T04:00:48.732Z,4.80
2023-01-07T04:03:20.309Z,4.50
2023-01-07T04:05:49.051Z,4.60
2023-01-07T04:08:20.358Z,4.23
2023-01-07T04:10:48.696Z,4.50
2023-01-07T04:13:19.029Z,4.20
2023-01-07T04:15:49.667Z,4.33
2023-01-07T04:18:18.010Z,4.20
2023-01-07T04:20:48.009Z,4.77
2023-01-07T04:23:17.658Z,4.57
2023-01-07T04:25:49.974Z,4.37
2023-01-07T04:28:22.464Z,4.03
2023-01-07T04:30:51.006Z,3.73
2023-01-07T04:33:19.842Z,3.70
2023-01-07T04:35:49.074Z,3.40
2023-01-07T04:38:18.696Z,3.63
2023-01-07T04:40:46.968Z,3.30
2023-01-07T04:43:17.016Z,3.13
2023-01-07T04:45:45.414Z,3.40
2023-01-07T04:48:16.937Z,3.10
2023-01-07T04:50:47.891Z,2.80
2023-01-07T04:53:17.884Z,2.90
2023-01-07T04:55:47.351Z,2.80
2023-01-07T04:58:17.680Z,2.73
2023-01-07T05:00:46.910Z,2.17
2023-01-07T05:03:15.281Z,2.30
2023-01-07T05:05:43.897Z,2.73
2023-01-07T05:08:12.519Z,2.90
2023-01-07T05:10:41.590Z,2.50
2023-01-07T05:13:17.614Z,2.70
2023-01-07T05:15:47.099Z,2.37
2023-01-07T05:18:16.093Z,3.10
2023-01-07T05:20:45.156Z,2.47
2023-01-07T05:23:14.541Z,1.93
2023-01-07T05:25:43.895Z,2.17
2023-01-07T05:28:13.094Z,2.00
2023-01-07T05:30:43.774Z,2.17
2023-01-07T05:33:12.112Z,1.97
2023-01-07T05:35:40.475Z,1.83
2023-01-07T05:38:08.861Z,2.00
2023-01-07T05:40:37.982Z,2.53
2023-01-07T05:43:06.316Z,2.40
2023-01-07T05:45:34.684Z,2.13
2023-01-07T05:48:04.464Z,2.40
2023-01-07T05:50:32.660Z,2.50
2023-01-07T05:53:01.428Z,2.90
2023-01-07T05:55:29.768Z,3.03
2023-01-07T05:57:58.063Z,3.00
2023-01-07T06:00:26.329Z,2.73
2023-01-07T06:02:54.559Z,2.70
2023-01-07T06:05:24.328Z,2.40
2023-01-07T06:07:52.644Z,2.70
2023-01-07T06:10:20.896Z,2.83
2023-01-07T06:12:49.202Z,2.73
2023-01-07T06:15:17.676Z,2.50
2023-01-07T06:17:46.118Z,2.80
2023-01-07T06:20:15.657Z,2.47
2023-01-07T06:22:45.507Z,2.60
2023-01-07T06:25:14.321Z,2.73
2023-01-07T06:27:42.596Z,2.63
2023-01-07T06:30:12.573Z,2.80
2023-01-07T06:32:42.067Z,3.03
2023-01-07T06:35:12.292Z,2.60
2023-01-07T06:37:40.694Z,2.70
2023-01-07T06:40:12.059Z,2.80
2023-01-07T06:42:40.385Z,2.70
2023-01-07T06:45:09.836Z,2.23
2023-01-07T06:47:38.238Z,2.53
2023-01-07T06:50:07.535Z,2.93
2023-01-07T06:52:35.916Z,2.30
2023-01-07T06:55:04.191Z,2.57
2023-01-07T06:57:33.858Z,2.40
2023-01-07T07:00:02.176Z,2.40
2023-01-07T07:02:30.742Z,2.83
2023-01-07T07:04:59.134Z,2.20
2023-01-07T07:07:27.395Z,1.93
2023-01-07T07:09:55.676Z,1.83
2023-01-07T07:12:23.947Z,1.80
2023-01-07T07:14:53.614Z,1.87
2023-01-07T07:17:21.838Z,1.40
2023-01-07T07:19:50.100Z,1.77
2023-01-07T07:22:18.318Z,1.07
2023-01-07T07:24:46.647Z,1.10
2023-01-07T07:27:15.086Z,1.20
2023-01-07T07:29:43.347Z,1.17
2023-01-07T07:32:13.036Z,1.17
2023-01-07T07:34:41.293Z,0.93
2023-01-07T07:37:09.577Z,1.10
2023-01-07T07:39:37.933Z,1.17
2023-01-07T07:42:06.942Z,1.20
2023-01-07T07:44:35.230Z,1.07
2023-01-07T07:47:03.538Z,1.03
2023-01-07T07:49:33.208Z,0.90
2023-01-07T07:52:01.506Z,1.03
2023-01-07T07:54:29.772Z,1.00
2023-01-07T07:56:58.455Z,1.07
2023-01-07T07:59:26.868Z,1.13
2023-01-07T08:01:55.268Z,1.53
2023-01-07T08:04:23.596Z,1.23
2023-01-07T08:06:53.311Z,1.20
2023-01-07T08:09:21.744Z,1.07
2023-01-07T08:11:49.978Z,1.10
2023-01-07T08:14:18.290Z,1.20
2023-01-07T08:16:46.582Z,0.90
2023-01-07T08:19:15.301Z,1.00
2023-01-07T08:21:43.655Z,1.20
2023-01-07T08:24:13.467Z,1.10
2023-01-07T08:26:41.969Z,1.30
2023-01-07T08:29:10.424Z,1.37
2023-01-07T08:31:38.727Z,1.53
2023-01-07T08:34:07.239Z,1.10
2023-01-07T08:36:35.504Z,1.60
2023-01-07T08:39:03.938Z,1.73
2023-01-07T08:41:34.038Z,1.20
2023-01-07T08:44:02.338Z,1.10
2023-01-07T08:46:30.704Z,1.60
2023-01-07T08:48:59.076Z,1.70
2023-01-07T08:51:27.393Z,1.63
2023-01-07T08:53:56.043Z,0.93
2023-01-07T08:56:24.320Z,1.40
2023-01-07T08:58:54.031Z,1.57
2023-01-07T09:01:22.453Z,1.37
2023-01-07T09:03:50.849Z,1.73
2023-01-07T09:06:19.132Z,1.43
2023-01-07T09:08:47.367Z,1.33
2023-01-07T09:11:15.824Z,1.87
2023-01-07T09:13:44.075Z,1.83
2023-01-07T09:16:14.164Z,1.90
2023-01-07T09:18:42.441Z,1.50
2023-01-07T09:21:10.725Z,1.53
2023-01-07T09:23:40.395Z,1.73
2023-01-07T09:26:08.985Z,1.77
2023-01-07T09:28:37.246Z,1.20
2023-01-07T09:31:08.036Z,1.40
2023-01-07T09:33:37.716Z,0.90
2023-01-07T09:36:06.968Z,1.03
2023-01-07T09:38:35.339Z,1.07
2023-01-07T09:41:03.790Z,1.00
2023-01-07T09:44:00.128Z,0.93
2023-01-07T09:46:27.217Z,0.90
2023-01-07T09:49:01.734Z,1.10
2023-01-07T09:51:35.192Z,1.10
2023-01-07T09:54:06.878Z,1.20
2023-01-07T09:56:37.831Z,1.10
2023-01-07T09:59:07.160Z,1.10
2023-01-07T10:01:40.798Z,1.00
2023-01-07T10:04:26.274Z,1.10
2023-01-07T10:07:05.632Z,1.17
2023-01-07T10:09:44.420Z,1.13
2023-01-07T10:12:21.182Z,1.30
2023-01-07T10:15:12.593Z,1.00
2023-01-07T10:17:54.156Z,1.53
2023-01-07T10:20:32.517Z,0.90
2023-01-07T10:23:11.816Z,1.10
2023-01-07T10:25:48.968Z,0.90
2023-01-07T10:28:23.758Z,1.10
2023-01-07T10:30:54.437Z,1.27
2023-01-07T10:33:30.291Z,1.20
2023-01-07T10:36:11.945Z,1.00
2023-01-07T10:38:49.425Z,1.20
2023-01-07T10:41:23.959Z,1.13
2023-01-07T10:44:03.880Z,1.00
2023-01-07T10:46:52.962Z,1.17
2023-01-07T10:49:33.683Z,1.10
2023-01-07T10:52:14.674Z,1.30
2023-01-07T10:54:59.217Z,1.10
2023-01-07T10:57:30.566Z,1.20
2023-01-07T11:00:03.724Z,0.90
2023-01-07T11:02:38.246Z,1.30
2023-01-07T11:05:08.211Z,1.20
2023-01-07T11:07:48.177Z,1.37
2023-01-07T11:10:20.983Z,1.50
2023-01-07T11:12:52.484Z,1.20
2023-01-07T11:15:25.931Z,1.40
2023-01-07T11:17:57.467Z,1.47
2023-01-07T11:20:47.566Z,1.50
2023-01-07T11:23:28.611Z,1.30
2023-01-07T11:26:10.495Z,1.80
2023-01-07T11:28:44.050Z,1.77
2023-01-07T11:31:12.462Z,1.67
2023-01-07T11:34:02.119Z,1.30
2023-01-07T11:36:44.131Z,1.33
2023-01-07T11:39:21.794Z,1.47
2023-01-07T11:41:55.295Z,1.90
2023-01-07T11:44:24.297Z,1.90
2023-01-07T11:46:53.206Z,1.73
2023-01-07T11:49:25.050Z,1.70
2023-01-07T11:51:53.995Z,1.77
2023-01-07T11:54:28.194Z,1.50
2023-01-07T11:57:12.304Z,1.80
2023-01-07T11:59:40.759Z,1.47
2023-01-07T12:02:25.869Z,1.80
2023-01-07T12:05:19.109Z,1.83
2023-01-07T12:07:48.853Z,1.60
2023-01-07T12:10:33.984Z,1.50
2023-01-07T12:13:06.608Z,1.77
2023-01-07T12:15:38.511Z,1.97
2023-01-07T12:18:31.625Z,2.77
2023-01-07T12:21:39.576Z,2.00
2023-01-07T12:24:27.955Z,2.00
2023-01-07T12:27:08.356Z,2.30
2023-01-07T12:29:48.425Z,1.97
2023-01-07T12:32:33.154Z,1.87
2023-01-07T12:35:15.226Z,1.70
2023-01-07T12:37:49.761Z,1.87
2023-01-07T12:40:28.123Z,1.60
2023-01-07T12:43:01.525Z,1.70
2023-01-07T12:45:33.948Z,1.97
2023-01-07T12:48:07.368Z,1.37
2023-01-07T12:50:41.744Z,1.23
2023-01-07T12:53:16.812Z,1.43
2023-01-07T12:55:50.051Z,1.50
2023-01-07T12:58:28.367Z,1.50
2023-01-07T13:01:00.832Z,1.10
2023-01-07T13:03:47.405Z,1.07
2023-01-07T13:06:19.704Z,1.20
2023-01-07T13:08:57.663Z,1.50
2023-01-07T13:11:46.158Z,0.90
2023-01-07T13:14:23.337Z,0.93
2023-01-07T13:16:51.728Z,1.53
2023-01-07T13:19:23.819Z,1.00
2023-01-07T13:21:52.972Z,1.17
2023-01-07T13:24:55.522Z,1.20
2023-01-07T13:27:32.258Z,1.00
2023-01-07T13:30:15.427Z,1.03
2023-01-07T13:33:12.903Z,1.00
2023-01-07T13:35:58.200Z,1.00
2023-01-07T13:38:39.553Z,0.90
2023-01-07T13:41:28.509Z,1.07
2023-01-07T13:44:10.522Z,1.03
2023-01-07T13:46:43.444Z,1.23
2023-01-07T13:49:26.473Z,0.83
2023-01-07T13:51:55.516Z,1.00
2023-01-07T13:54:59.354Z,1.20
2023-01-07T13:57:47.009Z,1.07
2023-01-07T14:00:43.492Z,1.20
2023-01-07T14:03:49.619Z,1.20
2023-01-07T14:06:42.562Z,1.27
2023-01-07T14:09:32.946Z,1.20
2023-01-07T14:12:40.005Z,1.40
2023-01-07T14:15:47.130Z,1.73
2023-01-07T14:18:40.922Z,1.70
2023-01-07T14:21:24.278Z,1.50
2023-01-07T14:24:07.151Z,1.67
2023-01-07T14:26:41.808Z,1.40
2023-01-07T14:29:28.268Z,1.77
2023-01-07T14:32:21.353Z,1.60
2023-01-07T14:34:56.774Z,1.30
2023-01-07T14:37:40.651Z,1.90
2023-01-07T14:40:49.356Z,1.67
2023-01-07T14:44:01.126Z,1.83
2023-01-07T14:46:50.194Z,1.73
2023-01-07T14:49:45.857Z,1.90
2023-01-07T14:52:32.189Z,2.00
2023-01-07T14:55:25.243Z,1.90
2023-01-07T14:58:04.223Z,1.70
2023-01-07T15:00:58.646Z,2.37
2023-01-07T15:03:49.823Z,1.60
2023-01-07T15:06:29.992Z,2.03
2023-01-07T15:09:23.379Z,2.27
2023-01-07T15:12:14.029Z,1.77
2023-01-07T15:15:05.372Z,1.90
2023-01-07T15:17:34.237Z,1.90
2023-01-07T15:20:07.005Z,2.00
2023-01-07T15:22:58.808Z,2.00
2023-01-07T15:25:35.851Z,2.30
2023-01-07T15:28:13.872Z,1.80
2023-01-07T15:30:52.452Z,2.40
2023-01-07T15:33:46.799Z,1.93
2023-01-07T15:36:16.868Z,2.47
2023-01-07T15:38:50.634Z,2.37
2023-01-07T15:41:29.594Z,2.10
2023-01-07T15:44:00.692Z,2.43
2023-01-07T15:46:31.348Z,2.50
2023-01-07T15:49:08.063Z,2.40
2023-01-07T15:51:40.076Z,2.77
2023-01-07T15:54:23.387Z,2.47
2023-01-07T15:56:54.126Z,2.90
2023-01-07T15:59:28.073Z,3.20
2023-01-07T16:02:05.807Z,3.00
2023-01-07T16:04:38.315Z,2.90
2023-01-07T16:07:07.682Z,3.03
2023-01-07T16:09:35.957Z,3.17
2023-01-07T16:12:19.962Z,3.00
2023-01-07T16:14:49.592Z,2.90
2023-01-07T16:17:19.582Z,2.60
2023-01-07T16:19:48.138Z,2.63
2023-01-07T16:22:19.780Z,2.60
2023-01-07T16:24:53.407Z,2.80
2023-01-07T16:27:27.684Z,2.20
2023-01-07T16:29:59.342Z,2.60
2023-01-07T16:32:28.427Z,2.23
2023-01-07T16:35:03.854Z,3.13
2023-01-07T16:37:37.518Z,2.47
2023-01-07T16:40:17.702Z,2.87
2023-01-07T16:42:48.211Z,2.57
2023-01-07T16:45:32.473Z,2.60
2023-01-07T16:48:03.990Z,2.73
2023-01-07T16:50:39.844Z,2.90
2023-01-07T16:53:25.059Z,2.80
2023-01-07T16:56:13.294Z,2.73
2023-01-07T16:58:53.865Z,2.67
2023-01-07T17:04:24.984Z,2.37
2023-01-07T17:06:53.297Z,2.60
2023-01-07T17:09:25.523Z,2.70
2023-01-07T17:11:54.680Z,2.87
2023-01-07T17:14:45.537Z,3.40
2023-01-07T17:17:26.157Z,3.53
2023-01-07T17:20:00.527Z,3.33
2023-01-07T17:22:31.293Z,4.37
2023-01-07T17:25:07.361Z,3.97
2023-01-07T17:27:36.606Z,3.93
2023-01-07T17:30:07.308Z,3.90
2023-01-07T17:32:38.464Z,4.10
2023-01-07T17:35:08.338Z,3.77
2023-01-07T17:37:37.108Z,3.63
2023-01-07T17:40:07.170Z,3.53
2023-01-07T17:42:53.854Z,3.73
2023-01-07T17:45:22.434Z,3.40
2023-01-07T17:47:52.844Z,3.47
2023-01-07T17:50:21.922Z,3.80
2023-01-07T17:52:53.177Z,3.10
2023-01-07T17:55:26.498Z,3.60
2023-01-07T17:57:54.809Z,3.20
2023-01-07T18:00:24.740Z,3.23
2023-01-07T18:02:54.514Z,3.00
2023-01-07T18:05:25.480Z,2.70
2023-01-07T18:07:54.368Z,2.90
2023-01-07T18:10:26.617Z,3.30
2023-01-07T18:12:53.915Z,3.00
2023-01-07T18:15:24.768Z,3.03
2023-01-07T18:17:54.698Z,3.37
2023-01-07T18:20:24.174Z,3.60
2023-01-07T18:22:52.495Z,3.33
2023-01-07T18:25:22.537Z,3.97
2023-01-07T18:27:52.787Z,3.63
2023-01-07T18:30:22.429Z,3.83
2023-01-07T18:32:53.072Z,5.13
2023-01-07T18:35:23.927Z,4.20
2023-01-07T18:37:52.493Z,4.13
2023-01-07T18:40:21.147Z,3.87
2023-01-07T18:42:49.404Z,3.50
2023-01-07T18:45:17.867Z,3.40
2023-01-07T18:47:46.569Z,3.57
2023-01-07T18:50:15.809Z,4.27
2023-01-07T18:52:45.442Z,4.10
2023-01-07T18:55:13.754Z,4.00
2023-01-07T18:57:42.089Z,3.97
2023-01-07T19:00:11.592Z,3.67
2023-01-07T19:02:40.373Z,3.50
2023-01-07T19:05:09.642Z,3.67
2023-01-07T19:07:38.271Z,4.07
2023-01-07T19:10:10.021Z,3.57
2023-01-07T19:12:38.316Z,3.63
2023-01-07T19:15:08.458Z,3.83
2023-01-07T19:17:36.864Z,3.40
2023-01-07T19:20:08.525Z,4.37
2023-01-07T19:22:37.455Z,3.77
2023-01-07T19:25:09.185Z,3.80
2023-01-07T19:27:37.612Z,3.60
2023-01-07T19:30:08.723Z,3.80
2023-01-07T19:32:37.063Z,4.57
2023-01-07T19:35:07.502Z,4.13
2023-01-07T19:37:38.005Z,3.10
2023-01-07T19:40:09.885Z,3.63
2023-01-07T19:42:38.235Z,3.57
2023-01-07T19:45:08.361Z,3.80
2023-01-07T19:47:36.682Z,4.27
2023-01-07T19:50:07.101Z,3.47
2023-01-07T19:52:35.621Z,3.30
2023-01-07T19:55:04.039Z,3.47
2023-01-07T19:57:34.860Z,3.53
2023-01-07T20:00:03.244Z,3.63
2023-01-07T20:02:34.749Z,3.43
2023-01-07T20:05:03.160Z,3.83
2023-01-07T20:07:34.943Z,3.53
2023-01-07T20:10:03.287Z,3.60
2023-01-07T20:12:34.702Z,3.40
2023-01-07T20:15:02.976Z,3.60
2023-01-07T20:17:33.243Z,3.97
2023-01-07T20:20:01.495Z,3.93
2023-01-07T20:22:29.795Z,3.50
2023-01-07T20:24:58.035Z,3.53
2023-01-07T20:27:26.319Z,3.53
2023-01-07T20:29:55.913Z,3.63
2023-01-07T20:32:24.269Z,3.70
2023-01-07T20:34:52.564Z,3.30
2023-01-07T20:37:21.032Z,3.90
2023-01-07T20:39:49.335Z,3.90
2023-01-07T20:42:17.606Z,4.03
2023-01-07T20:44:47.271Z,4.00
2023-01-07T20:47:16.948Z,4.23
2023-01-07T20:49:45.366Z,4.23
2023-01-07T20:52:13.665Z,4.30
2023-01-07T20:54:41.896Z,3.90
2023-01-07T20:57:10.309Z,3.93
2023-01-07T20:59:38.578Z,4.40
2023-01-07T21:02:08.974Z,3.70
2023-01-07T21:04:38.830Z,4.10
2023-01-07T21:07:08.231Z,4.50
2023-01-07T21:09:36.871Z,4.00
2023-01-07T21:12:06.430Z,3.73
2023-01-07T21:14:35.140Z,3.83
2023-01-07T21:17:03.364Z,3.93
2023-01-07T21:19:33.705Z,4.23
2023-01-07T21:22:03.420Z,3.77
2023-01-07T21:24:32.811Z,4.20
2023-01-07T21:27:01.151Z,4.17
2023-01-07T21:29:29.454Z,4.53
2023-01-07T21:31:57.869Z,4.23
2023-01-07T21:34:26.236Z,4.27
2023-01-07T21:36:54.487Z,4.20
2023-01-07T21:39:24.112Z,4.10
2023-01-07T21:41:52.379Z,4.00
2023-01-07T21:44:20.653Z,3.93
2023-01-07T21:46:49.006Z,3.70
2023-01-07T21:49:19.088Z,3.60
2023-01-07T21:51:47.416Z,3.77
2023-01-07T21:54:15.692Z,4.00
2023-01-07T21:56:45.376Z,4.53
2023-01-07T21:59:13.697Z,3.87
2023-01-07T22:01:42.178Z,3.70
2023-01-07T22:04:10.614Z,3.83
2023-01-07T22:06:38.930Z,3.47
2023-01-07T22:09:12.346Z,3.30
2023-01-07T22:11:42.383Z,3.77
2023-01-07T22:14:14.531Z,3.20
2023-01-07T22:16:43.227Z,3.40
2023-01-07T22:19:12.499Z,2.90
2023-01-07T22:21:41.032Z,2.93
2023-01-07T22:24:09.491Z,2.97
2023-01-07T22:26:37.829Z,2.50
2023-01-07T22:29:08.955Z,3.30
2023-01-07T22:31:39.208Z,2.90
2023-01-07T22:34:09.855Z,2.80
2023-01-07T22:36:47.548Z,4.03
2023-01-07T22:39:19.912Z,3.10
2023-01-07T22:41:49.656Z,2.90
2023-01-07T22:44:22.366Z,2.93
2023-01-07T22:46:53.721Z,3.17
2023-01-07T22:49:25.168Z,3.17
2023-01-07T22:51:53.772Z,3.17
2023-01-07T22:54:22.324Z,2.90
2023-01-07T22:56:50.825Z,3.17
2023-01-07T22:59:19.069Z,3.60
2023-01-07T23:01:47.291Z,3.20
2023-01-07T23:04:16.987Z,3.00
2023-01-07T23:06:45.309Z,2.90
2023-01-07T23:09:13.706Z,3.20
2023-01-07T23:11:51.821Z,3.03
2023-01-07T23:14:21.674Z,2.83
2023-01-07T23:16:51.162Z,3.17
2023-01-07T23:19:21.490Z,3.10
2023-01-07T23:21:52.219Z,3.00
2023-01-07T23:24:20.985Z,3.37
2023-01-07T23:26:50.478Z,2.80
2023-01-07T23:29:19.372Z,3.20
2023-01-07T23:31:47.780Z,2.83
2023-01-07T23:34:17.133Z,3.00
2023-01-07T23:36:46.798Z,3.20
2023-01-07T23:39:15.195Z,3.67
2023-01-07T23:41:43.436Z,3.70
2023-01-07T23:44:11.819Z,2.93
2023-01-07T23:46:40.050Z,3.20
2023-01-07T23:49:08.485Z,3.10
2023-01-07T23:51:36.798Z,3.30
2023-01-07T23:54:07.065Z,3.27
2023-01-07T23:56:35.313Z,3.10
2023-01-07T23:59:03.677Z,3.83
